createdAt,value
2022-12-03T00:00:23.074Z,26.25
2022-12-03T00:02:50.293Z,20.13
2022-12-03T00:05:17.596Z,22.35
2022-12-03T00:07:45.081Z,21.63
2022-12-03T00:10:12.600Z,22.33
2022-12-03T00:12:39.779Z,23.33
2022-12-03T00:15:09.419Z,25.48
2022-12-03T00:17:36.551Z,24.92
2022-12-03T00:20:05.682Z,23.08
2022-12-03T00:22:32.740Z,25.48
2022-12-03T00:24:59.818Z,24.98
2022-12-03T00:27:26.999Z,27.48
2022-12-03T00:29:54.063Z,22.27
2022-12-03T00:32:21.105Z,22.58
2022-12-03T00:34:48.235Z,23.27
2022-12-03T00:37:15.289Z,31.17
2022-12-03T00:39:42.292Z,21.92
2022-12-03T00:42:09.353Z,25.65
2022-12-03T00:44:36.395Z,25.17
2022-12-03T00:47:03.821Z,26.70
2022-12-03T00:49:31.171Z,24.35
2022-12-03T00:51:58.170Z,25.00
2022-12-03T00:54:30.202Z,27.05
2022-12-03T00:56:59.001Z,27.35
2022-12-03T00:59:26.066Z,23.85
2022-12-03T01:01:53.193Z,25.70
2022-12-03T01:04:20.395Z,21.95
2022-12-03T01:06:47.593Z,29.52
2022-12-03T01:09:14.754Z,20.60
2022-12-03T01:11:41.963Z,22.95
2022-12-03T01:14:12.044Z,29.25
2022-12-03T01:16:39.866Z,32.63
2022-12-03T01:19:08.802Z,25.95
2022-12-03T01:21:36.676Z,21.63
2022-12-03T01:24:04.613Z,23.75
2022-12-03T01:26:31.618Z,25.15
2022-12-03T01:28:58.712Z,29.60
2022-12-03T01:31:44.776Z,26.05
2022-12-03T01:34:12.054Z,26.85
2022-12-03T01:36:39.170Z,24.60
2022-12-03T01:39:06.244Z,25.85
2022-12-03T01:41:35.514Z,25.20
2022-12-03T01:44:04.608Z,31.00
2022-12-03T01:46:39.052Z,24.77
2022-12-03T01:49:07.066Z,23.25
2022-12-03T01:51:34.175Z,28.77
2022-12-03T01:54:03.291Z,24.25
2022-12-03T01:56:30.391Z,25.02
2022-12-03T01:58:57.471Z,26.90
2022-12-03T02:01:24.595Z,25.02
2022-12-03T02:03:51.708Z,27.63
2022-12-03T02:06:21.461Z,25.30
2022-12-03T02:08:49.204Z,29.10
2022-12-03T02:11:25.428Z,25.13
2022-12-03T02:13:57.278Z,27.00
2022-12-03T02:16:24.546Z,20.83
2022-12-03T02:18:51.773Z,26.90
2022-12-03T02:21:40.142Z,27.83
2022-12-03T02:24:17.448Z,26.85
2022-12-03T02:26:45.062Z,27.73
2022-12-03T02:29:12.127Z,30.33
2022-12-03T02:31:39.303Z,24.77
2022-12-03T02:34:07.489Z,22.65
2022-12-03T02:36:36.148Z,22.90
2022-12-03T02:39:05.194Z,25.63
2022-12-03T02:41:51.198Z,25.90
2022-12-03T02:44:18.428Z,21.00
2022-12-03T02:46:45.733Z,23.15
2022-12-03T02:49:12.823Z,24.08
2022-12-03T02:51:39.840Z,28.42
2022-12-03T02:54:06.965Z,22.52
2022-12-03T02:56:34.201Z,24.92
2022-12-03T02:59:05.341Z,22.55
2022-12-03T03:01:32.654Z,20.98
2022-12-03T03:04:00.607Z,23.52
2022-12-03T03:06:27.673Z,26.35
2022-12-03T03:08:55.583Z,20.23
2022-12-03T03:11:24.009Z,27.88
2022-12-03T03:13:51.009Z,26.13
2022-12-03T03:16:18.020Z,23.52
2022-12-03T03:18:45.337Z,25.50
2022-12-03T03:21:13.052Z,26.38
2022-12-03T03:23:40.161Z,24.40
2022-12-03T03:26:09.845Z,31.70
2022-12-03T03:28:44.742Z,21.63
2022-12-03T03:31:14.477Z,23.65
2022-12-03T03:33:45.530Z,23.70
2022-12-03T03:36:14.778Z,27.85
2022-12-03T03:38:42.036Z,21.27
2022-12-03T03:41:11.550Z,30.85
2022-12-03T03:43:40.562Z,24.85
2022-12-03T03:46:08.037Z,25.77
2022-12-03T03:48:36.070Z,26.33
2022-12-03T03:51:08.808Z,24.63
2022-12-03T03:53:38.994Z,26.87
2022-12-03T03:56:06.866Z,23.92
2022-12-03T03:58:34.116Z,25.70
2022-12-03T04:01:01.388Z,22.67
2022-12-03T04:03:29.641Z,29.17
2022-12-03T04:05:56.674Z,26.83
2022-12-03T04:08:23.769Z,27.73
2022-12-03T04:11:17.165Z,26.15
2022-12-03T04:13:45.208Z,23.93
2022-12-03T04:16:12.258Z,29.42
2022-12-03T04:18:45.032Z,27.02
2022-12-03T04:21:36.583Z,24.67
2022-12-03T04:24:04.914Z,27.67
2022-12-03T04:26:50.930Z,26.88
2022-12-03T04:29:18.519Z,25.67
2022-12-03T04:32:04.985Z,23.80
2022-12-03T04:34:50.540Z,26.13
2022-12-03T04:37:17.809Z,26.20
2022-12-03T04:39:44.901Z,31.27
2022-12-03T04:42:12.051Z,25.95
2022-12-03T04:44:39.154Z,25.15
2022-12-03T04:47:13.326Z,32.03
2022-12-03T04:49:46.150Z,29.20
2022-12-03T04:52:15.151Z,32.70
2022-12-03T04:54:42.783Z,28.45
2022-12-03T04:57:10.945Z,34.72
2022-12-03T04:59:38.131Z,29.10
2022-12-03T05:02:06.308Z,27.88
2022-12-03T05:04:33.901Z,27.40
2022-12-03T05:07:01.027Z,29.23
2022-12-03T05:09:28.111Z,28.17
2022-12-03T05:11:55.168Z,30.77
2022-12-03T05:14:22.240Z,28.65
2022-12-03T05:16:49.322Z,30.08
2022-12-03T05:19:16.376Z,35.72
2022-12-03T05:21:43.377Z,32.85
2022-12-03T05:24:10.450Z,36.72
2022-12-03T05:26:37.479Z,31.25
2022-12-03T05:29:04.693Z,44.05
2022-12-03T05:31:31.926Z,41.22
2022-12-03T05:33:59.071Z,35.70
2022-12-03T05:36:26.236Z,37.35
2022-12-03T05:38:53.403Z,36.17
2022-12-03T05:41:38.866Z,45.58
2022-12-03T05:44:05.917Z,36.58
2022-12-03T05:46:33.526Z,33.42
2022-12-03T05:49:00.659Z,37.28
2022-12-03T05:51:27.772Z,33.38
2022-12-03T05:53:55.070Z,42.88
2022-12-03T05:56:22.141Z,38.00
2022-12-03T05:58:49.136Z,33.88
2022-12-03T06:01:16.598Z,36.15
2022-12-03T06:03:44.239Z,37.15
2022-12-03T06:06:11.482Z,30.73
2022-12-03T06:08:38.534Z,29.33
2022-12-03T06:11:05.676Z,36.03
2022-12-03T06:13:32.725Z,34.00
2022-12-03T06:15:59.994Z,35.47
2022-12-03T06:18:27.060Z,37.75
2022-12-03T06:20:54.045Z,32.17
2022-12-03T06:23:21.088Z,33.83
2022-12-03T06:25:48.135Z,34.38
2022-12-03T06:28:15.231Z,30.48
2022-12-03T06:30:42.724Z,35.53
2022-12-03T06:33:09.904Z,30.52
2022-12-03T06:35:37.587Z,29.50
2022-12-03T06:38:04.809Z,29.83
2022-12-03T06:40:31.873Z,27.67
2022-12-03T06:42:58.902Z,27.52
2022-12-03T06:45:26.158Z,28.80
2022-12-03T06:47:53.160Z,30.08
2022-12-03T06:50:20.367Z,27.75
2022-12-03T06:52:47.372Z,29.58
2022-12-03T06:55:14.785Z,25.25
2022-12-03T06:57:41.844Z,28.83
2022-12-03T07:00:09.653Z,29.70
2022-12-03T07:02:36.848Z,26.35
2022-12-03T07:05:05.097Z,28.00
2022-12-03T07:07:32.412Z,28.35
2022-12-03T07:09:59.700Z,30.58
2022-12-03T07:12:26.813Z,31.45
2022-12-03T07:14:54.062Z,28.75
2022-12-03T07:17:21.325Z,23.75
2022-12-03T07:19:48.342Z,24.88
2022-12-03T07:22:18.909Z,28.55
2022-12-03T07:24:46.018Z,27.13
2022-12-03T07:27:13.117Z,24.23
2022-12-03T07:29:40.162Z,23.67
2022-12-03T07:32:07.150Z,26.60
2022-12-03T07:34:34.444Z,29.63
2022-12-03T07:37:01.635Z,30.83
2022-12-03T07:39:28.639Z,26.95
2022-12-03T07:41:56.043Z,27.00
2022-12-03T07:44:23.116Z,23.85
2022-12-03T07:46:50.186Z,32.78
2022-12-03T07:49:17.249Z,30.02
2022-12-03T07:51:53.383Z,32.13
2022-12-03T07:54:21.593Z,30.45
2022-12-03T07:56:48.640Z,34.97
2022-12-03T07:59:16.607Z,28.50
2022-12-03T08:01:43.930Z,30.75
2022-12-03T08:04:15.061Z,31.63
2022-12-03T08:06:42.135Z,31.15
2022-12-03T08:09:13.173Z,33.53
2022-12-03T08:14:17.617Z,31.40
2022-12-03T08:16:46.328Z,31.55
2022-12-03T08:19:17.686Z,31.55
2022-12-03T08:21:45.203Z,34.03
2022-12-03T08:24:18.538Z,33.67
2022-12-03T08:26:47.149Z,32.33
2022-12-03T08:29:19.633Z,31.35
2022-12-03T08:31:55.985Z,29.90
2022-12-03T08:34:27.069Z,38.15
2022-12-03T08:37:09.295Z,31.73
2022-12-03T08:39:44.497Z,38.45
2022-12-03T08:42:42.983Z,33.03
2022-12-03T08:45:28.348Z,32.83
2022-12-03T08:48:00.123Z,34.83
2022-12-03T08:50:29.096Z,33.13
2022-12-03T08:53:11.269Z,34.10
2022-12-03T08:55:46.635Z,34.53
2022-12-03T08:58:24.989Z,37.05
2022-12-03T09:00:58.604Z,34.42
2022-12-03T09:03:30.640Z,37.70
2022-12-03T09:05:57.786Z,33.65
2022-12-03T09:08:45.324Z,32.28
2022-12-03T09:11:12.839Z,31.20
2022-12-03T09:13:40.208Z,37.15
2022-12-03T09:16:07.785Z,35.17
2022-12-03T09:18:35.224Z,37.13
2022-12-03T09:21:02.324Z,31.08
2022-12-03T09:23:29.298Z,36.88
2022-12-03T09:25:56.364Z,33.65
2022-12-03T09:28:23.526Z,37.33
2022-12-03T09:30:50.519Z,35.80
2022-12-03T09:33:17.560Z,31.35
2022-12-03T09:35:44.625Z,37.63
2022-12-03T09:38:11.648Z,32.70
2022-12-03T09:40:39.230Z,36.00
2022-12-03T09:43:06.531Z,36.33
2022-12-03T09:45:33.577Z,35.15
2022-12-03T09:48:02.967Z,31.38
2022-12-03T09:50:31.287Z,35.53
2022-12-03T09:53:03.670Z,42.00
2022-12-03T09:55:31.115Z,34.22
2022-12-03T09:57:58.840Z,36.42
2022-12-03T10:00:29.550Z,31.08
2022-12-03T10:03:01.159Z,37.78
2022-12-03T10:05:29.133Z,34.97
2022-12-03T10:08:05.278Z,35.17
2022-12-03T10:10:33.649Z,38.67
2022-12-03T10:13:01.142Z,32.80
2022-12-03T10:15:28.285Z,39.72
2022-12-03T10:18:22.690Z,32.10
2022-12-03T10:20:51.912Z,34.22
2022-12-03T10:23:29.859Z,35.80
2022-12-03T10:26:03.559Z,33.53
2022-12-03T10:31:02.407Z,36.63
2022-12-03T10:33:33.080Z,33.78
2022-12-03T10:36:21.334Z,32.10
2022-12-03T10:39:10.633Z,28.55
2022-12-03T10:41:38.442Z,31.52
2022-12-03T10:44:20.686Z,36.63
2022-12-03T10:47:10.639Z,31.67
2022-12-03T10:49:38.330Z,35.50
2022-12-03T10:52:06.868Z,32.53
2022-12-03T10:54:35.415Z,39.97
2022-12-03T10:57:02.437Z,31.67
2022-12-03T10:59:32.827Z,32.85
2022-12-03T11:01:59.946Z,28.17
2022-12-03T11:04:34.016Z,35.35
2022-12-03T11:07:14.049Z,28.58
2022-12-03T11:09:44.263Z,32.83
2022-12-03T11:12:22.982Z,31.45
2022-12-03T11:14:54.051Z,32.65
2022-12-03T11:17:41.233Z,31.58
2022-12-03T11:20:24.956Z,23.52
2022-12-03T11:22:53.856Z,29.08
2022-12-03T11:25:27.084Z,30.58
2022-12-03T11:28:12.397Z,35.20
2022-12-03T11:30:51.465Z,30.10
2022-12-03T11:33:39.374Z,30.00
2022-12-03T11:36:06.382Z,33.15
2022-12-03T11:38:56.092Z,28.98
2022-12-03T11:41:26.283Z,25.58
2022-12-03T11:43:53.265Z,23.67
2022-12-03T11:46:38.684Z,26.50
2022-12-03T11:49:39.796Z,29.92
2022-12-03T11:52:40.134Z,23.52
2022-12-03T11:55:18.311Z,21.73
2022-12-03T11:57:46.351Z,26.95
2022-12-03T12:00:16.255Z,28.92
2022-12-03T12:02:44.298Z,27.98
2022-12-03T12:05:22.699Z,22.88
2022-12-03T12:07:50.552Z,28.60
2022-12-03T12:10:47.745Z,30.23
2022-12-03T12:13:35.325Z,35.97
2022-12-03T12:16:06.228Z,31.55
2022-12-03T12:18:54.867Z,29.60
2022-12-03T12:21:43.696Z,22.77
2022-12-03T12:24:46.925Z,37.10
2022-12-03T12:27:23.161Z,30.88
2022-12-03T12:29:59.329Z,33.85
2022-12-03T12:32:35.004Z,31.98
2022-12-03T12:35:22.098Z,30.38
2022-12-03T12:38:08.645Z,38.03
2022-12-03T12:40:38.606Z,37.53
2022-12-03T12:43:24.726Z,39.97
2022-12-03T12:46:13.617Z,34.25
2022-12-03T12:48:47.239Z,39.33
2022-12-03T12:51:19.444Z,33.33
2022-12-03T12:53:47.056Z,35.75
2022-12-03T12:56:27.577Z,33.58
2022-12-03T12:58:59.236Z,44.15
2022-12-03T13:01:29.510Z,39.30
2022-12-03T13:03:57.220Z,40.67
2022-12-03T13:06:27.384Z,43.40
2022-12-03T13:08:58.449Z,44.22
2022-12-03T13:11:25.897Z,36.45
2022-12-03T13:13:53.062Z,33.83
2022-12-03T13:16:27.862Z,40.20
2022-12-03T13:18:57.074Z,51.30
2022-12-03T13:21:40.450Z,45.38
2022-12-03T13:24:45.665Z,41.70
2022-12-03T13:27:19.590Z,46.85
2022-12-03T13:29:50.598Z,47.28
2022-12-03T13:32:34.356Z,41.13
2022-12-03T13:35:22.814Z,45.85
2022-12-03T13:37:49.938Z,53.42
2022-12-03T13:40:22.926Z,40.72
2022-12-03T13:42:50.062Z,44.78
2022-12-03T13:45:19.781Z,41.65
2022-12-03T13:47:49.566Z,46.15
2022-12-03T13:50:34.140Z,41.75
2022-12-03T13:53:05.642Z,43.38
2022-12-03T13:55:32.749Z,43.50
2022-12-03T13:57:59.836Z,34.28
2022-12-03T14:00:26.922Z,37.65
2022-12-03T14:02:54.257Z,34.28
2022-12-03T14:05:21.389Z,43.10
2022-12-03T14:07:48.577Z,32.92
2022-12-03T14:10:16.825Z,42.72
2022-12-03T14:12:44.142Z,34.95
2022-12-03T14:15:11.703Z,34.80
2022-12-03T14:17:38.759Z,34.13
2022-12-03T14:20:06.634Z,39.28
2022-12-03T14:22:36.900Z,33.35
2022-12-03T14:25:05.774Z,30.83
2022-12-03T14:27:33.285Z,36.67
2022-12-03T14:30:00.573Z,33.80
2022-12-03T14:32:27.582Z,34.92
2022-12-03T14:34:54.887Z,28.40
2022-12-03T14:37:21.984Z,34.35
2022-12-03T14:39:49.038Z,29.45
2022-12-03T14:42:16.974Z,27.88
2022-12-03T14:44:51.813Z,28.92
2022-12-03T14:47:23.985Z,28.50
2022-12-03T14:49:52.437Z,30.77
2022-12-03T14:52:20.112Z,30.38
2022-12-03T14:54:47.150Z,27.42
2022-12-03T14:57:15.349Z,31.90
2022-12-03T14:59:44.142Z,28.55
2022-12-03T15:02:11.943Z,25.48
2022-12-03T15:04:40.417Z,33.92
2022-12-03T15:07:08.094Z,30.73
2022-12-03T15:09:35.383Z,39.10
2022-12-03T15:12:02.949Z,37.95
2022-12-03T15:14:30.034Z,35.75
2022-12-03T15:16:57.298Z,31.40
2022-12-03T15:19:24.517Z,30.33
2022-12-03T15:21:51.628Z,32.92
2022-12-03T15:24:18.785Z,30.27
2022-12-03T15:26:46.264Z,36.83
2022-12-03T15:29:14.755Z,31.60
2022-12-03T15:31:42.056Z,39.33
2022-12-03T15:34:09.087Z,47.83
2022-12-03T15:36:36.159Z,44.38
2022-12-03T15:39:03.745Z,43.22
2022-12-03T15:41:31.085Z,37.03
2022-12-03T15:44:01.401Z,43.40
2022-12-03T15:46:29.591Z,49.35
2022-12-03T15:48:57.101Z,43.03
2022-12-03T15:51:25.148Z,40.47
2022-12-03T15:53:52.233Z,34.10
2022-12-03T15:56:19.378Z,45.20
2022-12-03T15:58:46.526Z,42.55
2022-12-03T16:01:14.168Z,43.90
2022-12-03T16:03:41.653Z,40.45
2022-12-03T16:06:09.007Z,42.40
2022-12-03T16:08:36.446Z,44.08
2022-12-03T16:11:03.656Z,43.17
2022-12-03T16:13:30.660Z,42.78
2022-12-03T16:15:57.790Z,40.65
2022-12-03T16:18:24.955Z,43.53
2022-12-03T16:20:52.289Z,41.38
2022-12-03T16:23:19.436Z,45.30
2022-12-03T16:25:46.622Z,37.22
2022-12-03T16:28:14.023Z,39.17
2022-12-03T16:30:41.192Z,46.88
2022-12-03T16:33:08.262Z,41.05
2022-12-03T16:35:35.378Z,45.05
2022-12-03T16:38:02.418Z,45.30
2022-12-03T16:40:29.489Z,40.00
2022-12-03T16:42:56.684Z,41.88
2022-12-03T16:45:29.362Z,40.35
2022-12-03T16:47:56.422Z,40.42
2022-12-03T16:50:29.344Z,41.75
2022-12-03T16:52:57.987Z,39.67
2022-12-03T16:55:25.401Z,42.25
2022-12-03T16:57:52.453Z,38.40
2022-12-03T17:00:21.774Z,42.13
2022-12-03T17:02:49.036Z,44.08
2022-12-03T17:05:18.933Z,53.72
2022-12-03T17:07:46.389Z,41.08
2022-12-03T17:10:14.022Z,54.00
2022-12-03T17:13:08.301Z,45.53
2022-12-03T17:15:28.300Z,51.40
2022-12-03T17:17:55.445Z,43.78
2022-12-03T17:20:22.619Z,51.60
2022-12-03T17:22:49.720Z,43.40
2022-12-03T17:25:17.227Z,44.00
2022-12-03T17:27:45.526Z,45.28
2022-12-03T17:30:16.625Z,44.67
2022-12-03T17:32:44.111Z,50.67
2022-12-03T17:35:12.134Z,53.20
2022-12-03T17:37:39.152Z,50.13
2022-12-03T17:40:08.121Z,44.55
2022-12-03T17:42:35.123Z,54.80
2022-12-03T17:45:02.774Z,45.17
2022-12-03T17:47:29.866Z,52.13
2022-12-03T17:49:57.613Z,44.35
2022-12-03T17:52:25.021Z,45.25
2022-12-03T17:55:10.875Z,51.70
2022-12-03T17:57:39.392Z,45.35
2022-12-03T18:00:07.055Z,48.53
2022-12-03T18:02:34.167Z,47.88
2022-12-03T18:05:01.266Z,43.30
2022-12-03T18:07:28.432Z,56.58
2022-12-03T18:09:56.192Z,55.47
2022-12-03T18:12:23.477Z,49.10
2022-12-03T18:14:50.559Z,51.10
2022-12-03T18:17:17.734Z,40.05
2022-12-03T18:19:44.745Z,49.30
2022-12-03T18:22:12.936Z,44.40
2022-12-03T18:24:40.234Z,41.38
2022-12-03T18:27:07.443Z,46.92
2022-12-03T18:29:34.637Z,51.35
2022-12-03T18:32:01.819Z,42.72
2022-12-03T18:34:28.874Z,46.58
2022-12-03T18:36:56.365Z,48.30
2022-12-03T18:39:35.451Z,41.25
2022-12-03T18:42:13.805Z,38.15
2022-12-03T18:44:49.416Z,40.13
2022-12-03T18:47:22.642Z,41.55
2022-12-03T18:49:49.889Z,39.87
2022-12-03T18:52:19.851Z,44.58
2022-12-03T18:54:48.730Z,41.28
2022-12-03T18:57:16.742Z,43.78
2022-12-03T18:59:44.151Z,46.42
2022-12-03T19:05:09.482Z,46.45
2022-12-03T19:07:39.066Z,44.50
2022-12-03T19:10:07.171Z,38.00
2022-12-03T19:12:34.404Z,47.25
2022-12-03T19:15:01.612Z,44.65
2022-12-03T19:17:28.802Z,39.17
2022-12-03T19:19:56.686Z,38.97
2022-12-03T19:22:24.219Z,41.03
2022-12-03T19:24:51.212Z,41.80
2022-12-03T19:27:18.908Z,43.00
2022-12-03T19:29:49.624Z,43.35
2022-12-03T19:32:17.201Z,42.28
2022-12-03T19:34:44.243Z,43.05
2022-12-03T19:37:11.405Z,42.75
2022-12-03T19:39:38.431Z,41.22
2022-12-03T19:42:05.553Z,50.40
2022-12-03T19:44:32.694Z,37.80
2022-12-03T19:46:59.705Z,37.60
2022-12-03T19:49:27.093Z,37.72
2022-12-03T19:51:54.294Z,39.42
2022-12-03T19:54:21.290Z,38.85
2022-12-03T19:56:48.480Z,44.05
2022-12-03T19:59:17.697Z,37.45
2022-12-03T20:01:45.499Z,36.53
2022-12-03T20:04:13.937Z,45.80
2022-12-03T20:06:41.334Z,38.65
2022-12-03T20:09:12.187Z,39.50
2022-12-03T20:11:41.470Z,46.95
2022-12-03T20:14:11.622Z,38.20
2022-12-03T20:16:38.862Z,43.63
2022-12-03T20:19:07.905Z,42.35
2022-12-03T20:21:36.889Z,34.33
2022-12-03T20:24:05.125Z,45.60
2022-12-03T20:26:32.276Z,41.58
2022-12-03T20:29:00.183Z,37.05
2022-12-03T20:31:30.198Z,43.65
2022-12-03T20:34:01.079Z,40.72
2022-12-03T20:36:29.896Z,35.72
2022-12-03T20:38:59.358Z,39.58
2022-12-03T20:41:27.402Z,41.90
2022-12-03T20:43:55.040Z,33.53
2022-12-03T20:46:31.035Z,40.85
2022-12-03T20:48:59.306Z,40.60
2022-12-03T20:51:29.968Z,32.05
2022-12-03T20:53:58.885Z,35.55
2022-12-03T20:56:28.793Z,38.10
2022-12-03T20:58:56.415Z,32.80
2022-12-03T21:01:26.325Z,37.20
2022-12-03T21:03:55.970Z,46.05
2022-12-03T21:06:25.993Z,31.55
2022-12-03T21:08:54.387Z,39.08
2022-12-03T21:11:25.050Z,37.58
2022-12-03T21:13:53.685Z,35.42
2022-12-03T21:16:51.913Z,37.85
2022-12-03T21:19:17.092Z,39.83
2022-12-03T21:21:44.236Z,37.45
2022-12-03T21:24:12.839Z,37.45
2022-12-03T21:26:40.916Z,38.40
2022-12-03T21:29:07.985Z,39.85
2022-12-03T21:31:37.242Z,39.65
2022-12-03T21:34:05.085Z,37.38
2022-12-03T21:36:32.374Z,39.50
2022-12-03T21:38:59.975Z,42.55
2022-12-03T21:41:26.981Z,43.20
2022-12-03T21:43:54.031Z,43.30
2022-12-03T21:47:10.002Z,38.28
2022-12-03T21:49:08.234Z,42.95
2022-12-03T21:51:35.301Z,42.85
2022-12-03T21:54:03.575Z,38.67
2022-12-03T21:56:31.873Z,35.05
2022-12-03T21:58:59.130Z,35.47
2022-12-03T22:01:26.528Z,42.10
2022-12-03T22:03:53.792Z,38.35
2022-12-03T22:06:21.595Z,44.42
2022-12-03T22:08:49.095Z,38.65
2022-12-03T22:11:19.756Z,38.70
2022-12-03T22:13:47.232Z,41.20
2022-12-03T22:16:17.136Z,41.15
2022-12-03T22:18:44.478Z,37.55
2022-12-03T22:21:14.111Z,42.20
2022-12-03T22:23:41.543Z,43.88
2022-12-03T22:26:11.965Z,41.53
2022-12-03T22:28:43.036Z,40.50
2022-12-03T22:31:10.785Z,38.00
2022-12-03T22:33:38.482Z,46.03
2022-12-03T22:36:08.441Z,44.38
2022-12-03T22:38:35.965Z,40.42
2022-12-03T22:41:07.170Z,42.15
2022-12-03T22:43:37.134Z,33.58
2022-12-03T22:46:06.445Z,38.15
2022-12-03T22:48:34.684Z,40.05
2022-12-03T22:51:02.225Z,46.47
2022-12-03T22:53:29.312Z,41.72
2022-12-03T22:55:58.323Z,43.25
2022-12-03T22:58:26.435Z,42.67
2022-12-03T23:00:58.574Z,42.22
2022-12-03T23:03:29.668Z,41.78
2022-12-03T23:32:13.579Z,41.47
